Terminal Aerodrome Forecast
Issued by NWS

Home | Current Version | Previous Version | Text Only | Print | Product List | Glossary On
Versions: 1 2 3 4 5 6 7 8 9 10 11 12 13 14 15
000
FTUS44 KEPZ 011700
TAFTCS
TAF
KTCS 011737Z 0118/0218 04005KT P6SM FEW040
     FM020000 VRB03KT P6SM SKC
     FM020900 31005KT 5SM BR SKC
     FM021100 31004KT 3SM BR SKC
     FM021700 VRB04KT P6SM FEW030=

USA.gov is the U.S. government's official web portal to all federal, state and local government web resources and services.